createdAt,value
2018-07-08T00:00:52.178Z,22.13
2018-07-08T00:01:52.097Z,22.12
2018-07-08T00:02:52.256Z,22.13
2018-07-08T00:03:52.047Z,22.12
2018-07-08T00:04:52.120Z,22.12
2018-07-08T00:05:52.189Z,22.12
2018-07-08T00:06:54.028Z,22.12
2018-07-08T00:07:52.150Z,22.12
2018-07-08T00:08:52.237Z,22.13
2018-07-08T00:09:52.068Z,22.12
2018-07-08T00:10:52.051Z,22.12
2018-07-08T00:11:52.219Z,22.12
2018-07-08T00:12:52.181Z,22.12
2018-07-08T00:13:52.190Z,22.12
2018-07-08T00:14:52.222Z,22.12
2018-07-08T00:15:52.197Z,22.12
2018-07-08T00:16:52.123Z,22.12
2018-07-08T00:17:52.149Z,22.12
2018-07-08T00:18:52.139Z,22.12
2018-07-08T00:19:52.094Z,22.12
2018-07-08T00:20:52.175Z,22.12
2018-07-08T00:21:54.622Z,22.12
2018-07-08T00:22:52.114Z,22.12
2018-07-08T00:23:52.165Z,22.12
2018-07-08T00:24:52.093Z,22.12
2018-07-08T00:25:52.134Z,22.12
2018-07-08T00:26:52.134Z,22.12
2018-07-08T00:27:52.212Z,22.12
2018-07-08T00:28:52.505Z,22.12
2018-07-08T00:29:52.181Z,22.12
2018-07-08T00:30:52.077Z,22.11
2018-07-08T00:31:52.177Z,22.12
2018-07-08T00:32:52.080Z,22.11
2018-07-08T00:33:52.237Z,22.11
2018-07-08T00:34:52.221Z,22.11
2018-07-08T00:35:52.172Z,22.11
2018-07-08T00:36:52.077Z,22.11
2018-07-08T00:37:54.403Z,22.11
2018-07-08T00:38:52.239Z,22.11
2018-07-08T00:39:52.887Z,22.11
2018-07-08T00:40:52.107Z,22.11
2018-07-08T00:41:52.267Z,22.11
2018-07-08T00:42:52.117Z,22.11
2018-07-08T00:43:52.189Z,22.11
2018-07-08T00:44:54.443Z,22.11
2018-07-08T00:45:52.137Z,22.11
2018-07-08T00:46:52.183Z,22.1
2018-07-08T00:47:52.249Z,22.11
2018-07-08T00:48:52.176Z,22.1
2018-07-08T00:49:52.155Z,22.11
2018-07-08T00:50:52.214Z,22.1
2018-07-08T00:51:52.133Z,22.1
2018-07-08T00:52:52.220Z,22.1
2018-07-08T00:53:52.268Z,22.1
2018-07-08T00:54:52.045Z,22.1
2018-07-08T00:55:54.741Z,22.1
2018-07-08T00:56:52.084Z,22.1
2018-07-08T00:57:52.134Z,22.1
2018-07-08T00:58:52.150Z,22.1
2018-07-08T00:59:52.079Z,22.1
2018-07-08T01:00:52.224Z,22.1
2018-07-08T01:01:52.248Z,22.1
2018-07-08T01:02:54.479Z,22.1
2018-07-08T01:03:52.107Z,22.1
2018-07-08T01:04:54.500Z,22.1
2018-07-08T01:05:52.123Z,22.1
2018-07-08T01:06:54.097Z,22.1
2018-07-08T01:07:52.475Z,22.09
2018-07-08T01:08:52.687Z,22.1
2018-07-08T01:09:52.227Z,22.1
2018-07-08T01:10:52.092Z,22.1
2018-07-08T01:11:52.137Z,22.09
2018-07-08T01:12:52.103Z,22.09
2018-07-08T01:13:52.158Z,22.09
2018-07-08T01:14:52.249Z,22.09
2018-07-08T01:15:52.265Z,22.09
2018-07-08T01:16:52.165Z,22.09
2018-07-08T01:17:54.805Z,22.09
2018-07-08T01:18:52.091Z,22.09
2018-07-08T01:19:52.104Z,22.09
2018-07-08T01:20:52.130Z,22.09
2018-07-08T01:21:52.094Z,22.09
2018-07-08T01:22:52.110Z,22.09
2018-07-08T01:23:52.136Z,22.09
2018-07-08T01:24:54.916Z,22.09
2018-07-08T01:25:52.163Z,22.09
2018-07-08T01:26:54.110Z,22.08
2018-07-08T01:27:52.185Z,22.09
2018-07-08T01:28:52.175Z,22.09
2018-07-08T01:29:52.143Z,22.08
2018-07-08T01:30:52.167Z,22.08
2018-07-08T01:31:52.261Z,22.08
2018-07-08T01:32:52.218Z,22.08
2018-07-08T01:33:52.314Z,22.08
2018-07-08T01:34:52.145Z,22.08
2018-07-08T01:35:52.141Z,22.08
2018-07-08T01:36:52.131Z,22.08
2018-07-08T01:37:52.144Z,22.08
2018-07-08T01:38:52.218Z,22.08
2018-07-08T01:39:52.178Z,22.08
2018-07-08T01:40:52.196Z,22.08
2018-07-08T01:41:54.366Z,22.08
2018-07-08T01:42:54.475Z,22.08
2018-07-08T01:43:52.242Z,22.08
2018-07-08T01:44:52.151Z,22.07
2018-07-08T01:45:52.132Z,22.07
2018-07-08T01:46:54.380Z,22.07
2018-07-08T01:47:52.183Z,22.07
2018-07-08T01:48:52.125Z,22.07
2018-07-08T01:49:52.271Z,22.07
2018-07-08T01:50:52.291Z,22.07
2018-07-08T01:51:52.125Z,22.07
2018-07-08T01:52:52.240Z,22.07
2018-07-08T01:53:52.241Z,22.07
2018-07-08T01:54:52.137Z,22.07
2018-07-08T01:55:52.222Z,22.07
2018-07-08T01:56:52.306Z,22.07
2018-07-08T01:57:52.226Z,22.06
2018-07-08T01:58:52.212Z,22.07
2018-07-08T01:59:52.273Z,22.06
2018-07-08T02:00:52.142Z,22.07
2018-07-08T02:01:52.498Z,22.07
2018-07-08T02:02:52.218Z,22.07
2018-07-08T02:03:52.205Z,22.06
2018-07-08T02:04:52.275Z,22.06
2018-07-08T02:05:54.929Z,22.06
2018-07-08T02:06:52.454Z,22.06
2018-07-08T02:07:52.526Z,22.06
2018-07-08T02:08:52.297Z,22.06
2018-07-08T02:09:52.142Z,22.06
2018-07-08T02:10:54.454Z,22.06
2018-07-08T02:11:54.966Z,22.06
2018-07-08T02:12:52.160Z,22.06
2018-07-08T02:13:55.068Z,22.06
2018-07-08T02:14:52.160Z,22.06
2018-07-08T02:15:52.153Z,22.06
2018-07-08T02:16:52.202Z,22.06
2018-07-08T02:17:52.248Z,22.06
2018-07-08T02:18:52.545Z,22.06
2018-07-08T02:19:52.242Z,22.06
2018-07-08T02:20:52.188Z,22.06
2018-07-08T02:22:02.031Z,22.06
2018-07-08T02:22:52.163Z,22.06
2018-07-08T02:23:52.225Z,22.06
2018-07-08T02:24:52.218Z,22.06
2018-07-08T02:25:52.206Z,22.06
2018-07-08T02:26:52.538Z,22.06
2018-07-08T02:27:52.278Z,22.06
2018-07-08T02:28:52.245Z,22.06
2018-07-08T02:29:52.176Z,22.06
2018-07-08T02:30:52.510Z,22.06
2018-07-08T02:31:52.171Z,22.06
2018-07-08T02:32:52.262Z,22.06
2018-07-08T02:33:52.183Z,22.06
2018-07-08T02:34:52.446Z,22.05
2018-07-08T02:35:52.296Z,22.05
2018-07-08T02:36:52.269Z,22.06
2018-07-08T02:37:52.315Z,22.06
2018-07-08T02:38:52.512Z,22.06
2018-07-08T02:39:52.551Z,22.05
2018-07-08T02:40:52.169Z,22.05
2018-07-08T02:41:52.170Z,22.05
2018-07-08T02:42:52.291Z,22.05
2018-07-08T02:43:52.214Z,22.05
2018-07-08T02:44:52.195Z,22.05
2018-07-08T02:45:52.231Z,22.05
2018-07-08T02:46:52.257Z,22.05
2018-07-08T02:47:52.532Z,22.05
2018-07-08T02:48:52.451Z,22.05
2018-07-08T02:49:52.231Z,22.05
2018-07-08T02:50:52.219Z,22.05
2018-07-08T02:51:53.885Z,22.05
2018-07-08T02:52:52.206Z,22.05
2018-07-08T02:53:52.337Z,22.05
2018-07-08T02:54:52.328Z,22.04
2018-07-08T02:55:52.585Z,22.04
2018-07-08T02:56:52.298Z,22.05
2018-07-08T02:57:52.208Z,22.04
2018-07-08T02:58:52.161Z,22.05
2018-07-08T02:59:52.372Z,22.04
2018-07-08T03:00:52.252Z,22.04
2018-07-08T03:01:52.182Z,22.04
2018-07-08T03:02:52.320Z,22.05
2018-07-08T03:03:52.548Z,22.04
2018-07-08T03:04:52.217Z,22.04
2018-07-08T03:05:52.332Z,22.04
2018-07-08T03:06:51.732Z,22.04
2018-07-08T03:07:52.140Z,22.04
2018-07-08T03:08:52.243Z,22.04
2018-07-08T03:09:52.502Z,22.04
2018-07-08T03:10:52.242Z,22.03
2018-07-08T03:11:52.182Z,22.04
2018-07-08T03:12:52.570Z,22.03
2018-07-08T03:13:52.247Z,22.04
2018-07-08T03:14:52.482Z,22.04
2018-07-08T03:15:52.504Z,22.03
2018-07-08T03:16:52.275Z,22.03
2018-07-08T03:17:52.741Z,22.03
2018-07-08T03:18:52.279Z,22.03
2018-07-08T03:19:52.584Z,22.03
2018-07-08T03:20:52.502Z,22.03
2018-07-08T03:21:52.216Z,22.03
2018-07-08T03:22:52.237Z,22.03
2018-07-08T03:23:52.271Z,22.03
2018-07-08T03:24:52.181Z,22.03
2018-07-08T03:25:52.249Z,22.03
2018-07-08T03:27:01.900Z,22.02
2018-07-08T03:27:52.348Z,22.02
2018-07-08T03:28:52.297Z,22.03
2018-07-08T03:29:52.547Z,22.03
2018-07-08T03:30:52.191Z,22.02
2018-07-08T03:31:52.555Z,22.03
2018-07-08T03:32:52.291Z,22.02
2018-07-08T03:33:52.334Z,22.02
2018-07-08T03:34:52.217Z,22.02
2018-07-08T03:35:52.502Z,22.02
2018-07-08T03:36:52.230Z,22.02
2018-07-08T03:37:52.571Z,22.02
2018-07-08T03:38:52.594Z,22.02
2018-07-08T03:39:52.272Z,22.02
2018-07-08T03:40:52.302Z,22.02
2018-07-08T03:41:52.230Z,22.02
2018-07-08T03:42:52.297Z,22.02
2018-07-08T03:43:54.808Z,22.02
2018-07-08T03:44:52.271Z,22.02
2018-07-08T03:45:52.290Z,22.02
2018-07-08T03:46:52.284Z,22.01
2018-07-08T03:47:52.241Z,22.02
2018-07-08T03:48:52.275Z,22.02
2018-07-08T03:49:52.255Z,22.01
2018-07-08T03:50:52.286Z,22.02
2018-07-08T03:51:52.180Z,22.01
2018-07-08T03:52:52.297Z,22.01
2018-07-08T03:53:52.500Z,22.01
2018-07-08T03:54:52.286Z,22.01
2018-07-08T03:55:52.516Z,22.01
2018-07-08T03:56:51.805Z,22.01
2018-07-08T03:57:52.513Z,22.01
2018-07-08T03:58:52.223Z,22.01
2018-07-08T03:59:52.549Z,22.01
2018-07-08T04:00:52.543Z,22.01
2018-07-08T04:01:54.791Z,22.01
2018-07-08T04:02:52.510Z,22
2018-07-08T04:03:52.568Z,22.01
2018-07-08T04:04:52.187Z,22
2018-07-08T04:05:52.346Z,22.01
2018-07-08T04:06:52.326Z,22.01
2018-07-08T04:07:52.206Z,22
2018-07-08T04:08:52.284Z,22.01
2018-07-08T04:09:52.398Z,22
2018-07-08T04:10:52.172Z,22.01
2018-07-08T04:11:51.695Z,22
2018-07-08T04:12:52.522Z,22.01
2018-07-08T04:13:52.326Z,22
2018-07-08T04:14:52.596Z,22
2018-07-08T04:15:52.322Z,22
2018-07-08T04:16:52.616Z,22
2018-07-08T04:17:52.312Z,22.01
2018-07-08T04:18:52.229Z,22
2018-07-08T04:19:52.330Z,22
2018-07-08T04:20:52.524Z,22
2018-07-08T04:21:52.985Z,22
2018-07-08T04:22:52.215Z,22
2018-07-08T04:23:52.197Z,22
2018-07-08T04:24:52.348Z,22
2018-07-08T04:25:52.564Z,22
2018-07-08T04:26:52.329Z,22
2018-07-08T04:27:52.559Z,22
2018-07-08T04:28:54.715Z,22
2018-07-08T04:29:51.774Z,22
2018-07-08T04:30:52.800Z,22
2018-07-08T04:31:52.614Z,22
2018-07-08T04:32:52.269Z,22
2018-07-08T04:33:52.309Z,22
2018-07-08T04:34:52.268Z,22
2018-07-08T04:35:52.418Z,22
2018-07-08T04:36:52.291Z,22
2018-07-08T04:37:52.510Z,22
2018-07-08T04:38:51.809Z,22
2018-07-08T04:39:52.524Z,22
2018-07-08T04:40:52.636Z,22
2018-07-08T04:41:52.587Z,22
2018-07-08T04:42:52.624Z,22
2018-07-08T04:43:52.291Z,22
2018-07-08T04:44:51.839Z,22
2018-07-08T04:45:51.906Z,22
2018-07-08T04:46:52.622Z,22
2018-07-08T04:47:51.847Z,22
2018-07-08T04:48:52.277Z,22
2018-07-08T04:49:52.563Z,22
2018-07-08T04:50:52.160Z,22
2018-07-08T04:51:52.148Z,22
2018-07-08T04:52:52.553Z,22
2018-07-08T04:53:52.245Z,22
2018-07-08T04:54:51.819Z,22
2018-07-08T04:55:52.153Z,22
2018-07-08T04:56:52.309Z,22
2018-07-08T04:57:52.163Z,22
2018-07-08T04:58:51.823Z,22
2018-07-08T04:59:51.827Z,22
2018-07-08T05:00:52.438Z,22
2018-07-08T05:01:51.839Z,22
2018-07-08T05:02:52.256Z,22
2018-07-08T05:03:52.643Z,22
2018-07-08T05:04:54.737Z,22
2018-07-08T05:05:52.169Z,22
2018-07-08T05:06:52.298Z,22
2018-07-08T05:07:51.825Z,21.99
2018-07-08T05:08:52.389Z,22
2018-07-08T05:09:51.793Z,22
2018-07-08T05:10:52.640Z,21.99
2018-07-08T05:11:52.606Z,21.99
2018-07-08T05:12:51.862Z,22
2018-07-08T05:13:52.326Z,21.99
2018-07-08T05:14:52.935Z,22
2018-07-08T05:15:52.273Z,22
2018-07-08T05:16:51.841Z,21.99
2018-07-08T05:17:52.331Z,22
2018-07-08T05:18:51.933Z,21.99
2018-07-08T05:19:51.883Z,22
2018-07-08T05:20:53.045Z,21.99
2018-07-08T05:21:52.569Z,21.99
2018-07-08T05:22:52.417Z,22
2018-07-08T05:23:52.345Z,21.99
2018-07-08T05:24:51.819Z,21.99
2018-07-08T05:25:51.812Z,21.99
2018-07-08T05:26:51.874Z,21.99
2018-07-08T05:27:54.450Z,21.99
2018-07-08T05:28:52.428Z,21.99
2018-07-08T05:29:52.484Z,21.99
2018-07-08T05:30:52.386Z,22
2018-07-08T05:31:52.291Z,22
2018-07-08T05:32:52.581Z,21.99
2018-07-08T05:33:52.338Z,21.99
2018-07-08T05:34:52.185Z,21.99
2018-07-08T05:35:52.331Z,21.99
2018-07-08T05:37:01.959Z,22
2018-07-08T05:37:51.882Z,21.99
2018-07-08T05:38:52.589Z,21.99
2018-07-08T05:39:52.282Z,21.99
2018-07-08T05:40:52.633Z,21.99
2018-07-08T05:41:52.629Z,21.99
2018-07-08T05:42:52.666Z,22
2018-07-08T05:43:51.903Z,21.99
2018-07-08T05:44:51.883Z,21.99
2018-07-08T05:45:51.701Z,21.99
2018-07-08T05:46:52.576Z,21.99
2018-07-08T05:47:51.888Z,22
2018-07-08T05:48:51.826Z,21.99
2018-07-08T05:49:51.883Z,22
2018-07-08T05:50:51.901Z,21.99
2018-07-08T05:51:51.832Z,21.99
2018-07-08T05:52:51.909Z,22
2018-07-08T05:53:52.642Z,22
2018-07-08T05:54:51.820Z,21.99
2018-07-08T05:55:51.817Z,22
2018-07-08T05:56:51.914Z,22
2018-07-08T05:57:52.603Z,22
2018-07-08T05:58:52.180Z,22
2018-07-08T05:59:51.827Z,22
2018-07-08T06:00:52.677Z,22
2018-07-08T06:01:51.870Z,21.99
2018-07-08T06:02:51.909Z,22
2018-07-08T06:03:51.806Z,22
2018-07-08T06:04:51.860Z,22
2018-07-08T06:05:51.827Z,21.99
2018-07-08T06:06:51.874Z,21.99
2018-07-08T06:07:52.956Z,21.99
2018-07-08T06:08:54.968Z,21.99
2018-07-08T06:09:51.879Z,22
2018-07-08T06:10:51.886Z,21.99
2018-07-08T06:11:52.771Z,21.99
2018-07-08T06:12:51.797Z,21.99
2018-07-08T06:13:51.896Z,21.99
2018-07-08T06:14:51.922Z,21.99
2018-07-08T06:15:52.674Z,21.99
2018-07-08T06:16:52.551Z,21.99
2018-07-08T06:17:52.327Z,21.99
2018-07-08T06:18:51.875Z,21.99
2018-07-08T06:19:51.912Z,21.99
2018-07-08T06:20:52.629Z,21.99
2018-07-08T06:21:52.645Z,21.99
2018-07-08T06:22:52.701Z,21.99
2018-07-08T06:23:52.604Z,21.99
2018-07-08T06:24:51.927Z,21.99
2018-07-08T06:25:52.589Z,21.99
2018-07-08T06:26:51.936Z,21.99
2018-07-08T06:27:52.664Z,21.99
2018-07-08T06:28:52.650Z,21.99
2018-07-08T06:29:51.929Z,21.99
2018-07-08T06:30:51.834Z,21.99
2018-07-08T06:31:52.311Z,21.99
2018-07-08T06:32:51.848Z,21.99
2018-07-08T06:33:51.821Z,21.98
2018-07-08T06:34:51.803Z,21.99
2018-07-08T06:35:51.925Z,21.98
2018-07-08T06:36:52.680Z,21.99
2018-07-08T06:37:52.339Z,21.98
2018-07-08T06:38:52.428Z,21.99
2018-07-08T06:39:51.792Z,21.98
2018-07-08T06:40:51.927Z,21.99
2018-07-08T06:41:51.912Z,21.99
2018-07-08T06:42:51.943Z,21.99
2018-07-08T06:43:51.819Z,21.98
2018-07-08T06:44:51.891Z,21.98
2018-07-08T06:45:51.804Z,21.98
2018-07-08T06:46:52.615Z,21.99
2018-07-08T06:47:52.257Z,21.99
2018-07-08T06:48:51.849Z,21.98
2018-07-08T06:49:53.869Z,21.98
2018-07-08T06:50:51.820Z,21.98
2018-07-08T06:51:52.997Z,21.98
2018-07-08T06:52:55.033Z,21.98
2018-07-08T06:53:51.991Z,21.98
2018-07-08T06:54:52.712Z,21.98
2018-07-08T06:55:51.881Z,21.98
2018-07-08T06:56:52.673Z,21.98
2018-07-08T06:57:52.800Z,21.98
2018-07-08T06:58:52.627Z,21.98
2018-07-08T06:59:51.995Z,21.98
2018-07-08T07:00:51.848Z,21.98
2018-07-08T07:01:51.897Z,21.98
2018-07-08T07:02:51.946Z,21.98
2018-07-08T07:03:51.949Z,21.98
2018-07-08T07:04:51.838Z,21.98
2018-07-08T07:05:51.887Z,21.98
2018-07-08T07:06:51.809Z,21.98
2018-07-08T07:07:51.877Z,21.98
2018-07-08T07:08:52.667Z,21.98
2018-07-08T07:09:52.266Z,21.98
2018-07-08T07:10:51.771Z,21.98
2018-07-08T07:11:52.006Z,21.98
2018-07-08T07:12:52.011Z,21.98
2018-07-08T07:13:51.872Z,21.98
2018-07-08T07:14:51.922Z,21.98
2018-07-08T07:15:51.804Z,21.98
2018-07-08T07:16:51.940Z,21.98
2018-07-08T07:17:51.895Z,21.98
2018-07-08T07:18:52.727Z,21.98
2018-07-08T07:19:51.850Z,21.98
2018-07-08T07:20:51.954Z,21.98
2018-07-08T07:21:51.930Z,21.99
2018-07-08T07:22:52.358Z,21.98
2018-07-08T07:23:52.702Z,21.98
2018-07-08T07:24:51.794Z,21.98
2018-07-08T07:25:51.849Z,21.98
2018-07-08T07:26:51.862Z,21.98
2018-07-08T07:27:51.883Z,21.98
2018-07-08T07:28:51.914Z,21.98
2018-07-08T07:29:51.848Z,21.98
2018-07-08T07:30:51.908Z,21.98
2018-07-08T07:31:51.865Z,21.99
2018-07-08T07:32:51.896Z,21.99
2018-07-08T07:33:51.750Z,21.98
2018-07-08T07:34:51.808Z,21.98
2018-07-08T07:35:52.659Z,21.99
2018-07-08T07:36:51.946Z,21.99
2018-07-08T07:37:51.966Z,21.99
2018-07-08T07:38:52.040Z,21.99
2018-07-08T07:39:51.813Z,21.98
2018-07-08T07:40:51.859Z,21.99
2018-07-08T07:41:52.782Z,21.99
2018-07-08T07:42:51.973Z,21.99
2018-07-08T07:43:51.990Z,21.99
2018-07-08T07:44:52.655Z,21.99
2018-07-08T07:45:51.875Z,21.99
2018-07-08T07:46:51.941Z,21.99
2018-07-08T07:47:51.898Z,21.99
2018-07-08T07:48:51.861Z,21.99
2018-07-08T07:49:51.976Z,21.99
2018-07-08T07:50:51.772Z,21.99
2018-07-08T07:51:51.833Z,21.99
2018-07-08T07:52:52.670Z,21.99
2018-07-08T07:53:52.784Z,21.99
2018-07-08T07:54:51.834Z,21.99
2018-07-08T07:55:51.837Z,21.99
2018-07-08T07:56:51.960Z,21.99
2018-07-08T07:57:51.976Z,21.99
2018-07-08T07:58:52.821Z,21.99
2018-07-08T07:59:51.928Z,21.99
2018-07-08T08:00:51.816Z,21.99
2018-07-08T08:01:52.676Z,21.99
2018-07-08T08:02:52.543Z,21.99
2018-07-08T08:03:51.818Z,22
2018-07-08T08:04:51.924Z,22
2018-07-08T08:05:52.276Z,21.99
2018-07-08T08:06:51.849Z,21.99
2018-07-08T08:07:52.762Z,22
2018-07-08T08:08:51.849Z,22
2018-07-08T08:09:51.874Z,22
2018-07-08T08:10:51.868Z,22
2018-07-08T08:11:51.913Z,21.99
2018-07-08T08:12:52.007Z,21.99
2018-07-08T08:13:52.697Z,22
2018-07-08T08:14:51.950Z,21.99
2018-07-08T08:15:51.886Z,22
2018-07-08T08:16:52.733Z,22
2018-07-08T08:17:51.985Z,22
2018-07-08T08:18:51.941Z,21.98
2018-07-08T08:19:52.068Z,21.98
2018-07-08T08:20:51.853Z,21.98
2018-07-08T08:21:51.873Z,22
2018-07-08T08:22:51.891Z,22.01
2018-07-08T08:23:51.947Z,22.02
2018-07-08T08:24:51.958Z,22.03
2018-07-08T08:25:51.995Z,22.04
2018-07-08T08:26:52.527Z,22.05
2018-07-08T08:27:51.785Z,22.06
2018-07-08T08:28:52.330Z,22.06
2018-07-08T08:29:51.753Z,22.06
2018-07-08T08:30:51.710Z,22.07
2018-07-08T08:31:51.871Z,22.09
2018-07-08T08:32:52.637Z,22.09
2018-07-08T08:33:51.939Z,22.1
2018-07-08T08:34:51.770Z,22.11
2018-07-08T08:35:51.751Z,22.12
2018-07-08T08:36:52.694Z,22.12
2018-07-08T08:37:52.549Z,22.13
2018-07-08T08:38:52.080Z,22.15
2018-07-08T08:39:51.918Z,22.15
2018-07-08T08:40:51.894Z,22.15
2018-07-08T08:41:51.941Z,22.16
2018-07-08T08:42:51.937Z,22.16
2018-07-08T08:43:51.866Z,22.18
2018-07-08T08:44:51.752Z,22.18
2018-07-08T08:45:51.931Z,22.18
2018-07-08T08:46:52.643Z,22.18
2018-07-08T08:47:51.913Z,22.19
2018-07-08T08:48:51.986Z,22.19
2018-07-08T08:49:52.762Z,22.19
2018-07-08T08:50:52.723Z,22.2
2018-07-08T08:51:51.882Z,22.21
2018-07-08T08:52:51.899Z,22.21
2018-07-08T08:53:51.922Z,22.21
2018-07-08T08:54:51.832Z,22.22
2018-07-08T08:55:51.986Z,22.22
2018-07-08T08:56:51.897Z,22.24
2018-07-08T08:57:51.857Z,22.24
2018-07-08T08:58:51.925Z,22.24
2018-07-08T08:59:52.024Z,22.24
2018-07-08T09:00:51.818Z,22.24
2018-07-08T09:01:52.744Z,22.25
2018-07-08T09:02:52.849Z,22.25
2018-07-08T09:03:51.797Z,22.26
2018-07-08T09:04:51.884Z,22.26
2018-07-08T09:05:51.826Z,22.27
2018-07-08T09:06:51.959Z,22.28
2018-07-08T09:07:51.922Z,22.28
2018-07-08T09:08:51.929Z,22.28
2018-07-08T09:09:51.914Z,22.28
2018-07-08T09:10:52.963Z,22.29
2018-07-08T09:11:51.860Z,22.29
2018-07-08T09:12:51.827Z,22.29
2018-07-08T09:13:51.923Z,22.29
2018-07-08T09:14:51.862Z,22.29
2018-07-08T09:15:51.933Z,22.29
2018-07-08T09:16:52.769Z,22.28
2018-07-08T09:17:51.960Z,22.28
2018-07-08T09:18:51.942Z,22.27
2018-07-08T09:19:51.976Z,22.27
2018-07-08T09:20:51.930Z,22.27
2018-07-08T09:21:51.816Z,22.26
2018-07-08T09:22:51.924Z,22.26
2018-07-08T09:23:52.905Z,22.26
2018-07-08T09:24:51.871Z,22.25
2018-07-08T09:25:51.812Z,22.25
2018-07-08T09:26:51.945Z,22.25
2018-07-08T09:27:51.840Z,22.26
2018-07-08T09:28:51.861Z,22.27
2018-07-08T09:29:51.923Z,22.27
2018-07-08T09:30:51.764Z,22.28
2018-07-08T09:31:51.822Z,22.28
2018-07-08T09:32:51.749Z,22.29
2018-07-08T09:33:51.946Z,22.29
2018-07-08T09:34:51.844Z,22.29
2018-07-08T09:35:51.931Z,22.3
2018-07-08T09:36:51.818Z,22.3
2018-07-08T09:37:52.819Z,22.31
2018-07-08T09:38:53.590Z,22.32
2018-07-08T09:39:52.019Z,22.32
2018-07-08T09:40:51.881Z,22.32
2018-07-08T09:41:51.720Z,22.32
2018-07-08T09:42:51.782Z,22.34
2018-07-08T09:43:52.058Z,22.35
2018-07-08T09:44:52.613Z,22.35
2018-07-08T09:45:52.505Z,22.35
2018-07-08T09:46:51.851Z,22.35
2018-07-08T09:47:51.769Z,22.35
2018-07-08T09:48:51.862Z,22.36
2018-07-08T09:49:51.859Z,22.36
2018-07-08T09:50:51.688Z,22.36
2018-07-08T09:51:52.012Z,22.36
2018-07-08T09:52:52.024Z,22.36
2018-07-08T09:53:51.745Z,22.36
2018-07-08T09:54:51.836Z,22.36
2018-07-08T09:55:52.008Z,22.37
2018-07-08T09:56:51.951Z,22.37
2018-07-08T09:57:51.907Z,22.38
2018-07-08T09:58:52.582Z,22.38
2018-07-08T09:59:51.884Z,22.38
2018-07-08T10:00:52.023Z,22.37
2018-07-08T10:01:52.079Z,22.38
2018-07-08T10:02:51.955Z,22.38
2018-07-08T10:03:51.788Z,22.39
2018-07-08T10:04:52.500Z,22.39
2018-07-08T10:05:51.923Z,22.4
2018-07-08T10:06:51.938Z,22.41
2018-07-08T10:07:51.888Z,22.41
2018-07-08T10:08:51.764Z,22.42
2018-07-08T10:09:51.915Z,22.43
2018-07-08T10:10:52.887Z,22.45
2018-07-08T10:11:53.171Z,22.45
2018-07-08T10:12:51.947Z,22.45
2018-07-08T10:13:53.068Z,22.47
2018-07-08T10:14:52.640Z,22.46
2018-07-08T10:15:51.832Z,22.47
2018-07-08T10:16:52.112Z,22.47
2018-07-08T10:17:53.376Z,22.48
2018-07-08T10:18:52.901Z,22.48
2018-07-08T10:19:53.458Z,22.48
2018-07-08T10:20:52.786Z,22.49
2018-07-08T10:21:51.793Z,22.49
2018-07-08T10:22:51.925Z,22.51
2018-07-08T10:23:51.979Z,22.52
2018-07-08T10:24:52.064Z,22.53
2018-07-08T10:25:51.966Z,22.53
2018-07-08T10:26:51.965Z,22.54
2018-07-08T10:27:51.819Z,22.55
2018-07-08T10:28:51.922Z,22.56
2018-07-08T10:29:51.954Z,22.57
2018-07-08T10:30:51.846Z,22.57
2018-07-08T10:31:51.970Z,22.57
2018-07-08T10:32:51.896Z,22.58
2018-07-08T10:33:51.883Z,22.58
2018-07-08T10:34:51.900Z,22.59
2018-07-08T10:35:51.686Z,22.59
2018-07-08T10:36:51.956Z,22.59
2018-07-08T10:37:52.819Z,22.61
2018-07-08T10:38:51.977Z,22.61
2018-07-08T10:39:51.786Z,22.61
2018-07-08T10:40:52.691Z,22.62
2018-07-08T10:41:52.068Z,22.63
2018-07-08T10:42:51.941Z,22.64
2018-07-08T10:43:51.886Z,22.63
2018-07-08T10:44:51.650Z,22.64
2018-07-08T10:45:51.847Z,22.63
2018-07-08T10:46:52.062Z,22.61
2018-07-08T10:47:51.948Z,22.6
2018-07-08T10:48:51.810Z,22.63
2018-07-08T10:49:51.823Z,22.62
2018-07-08T10:50:51.787Z,22.62
2018-07-08T10:51:51.778Z,22.61
2018-07-08T10:52:51.985Z,22.61
2018-07-08T10:53:51.722Z,22.61
2018-07-08T10:54:51.883Z,22.61
2018-07-08T10:55:51.943Z,22.61
2018-07-08T10:56:51.956Z,22.62
2018-07-08T10:57:51.815Z,22.62
2018-07-08T10:58:51.841Z,22.61
2018-07-08T10:59:51.778Z,22.62
2018-07-08T11:00:51.875Z,22.61
2018-07-08T11:01:52.855Z,22.61
2018-07-08T11:02:51.780Z,22.6
2018-07-08T11:03:51.840Z,22.59
2018-07-08T11:04:51.850Z,22.59
2018-07-08T11:05:51.854Z,22.58
2018-07-08T11:06:51.901Z,22.58
2018-07-08T11:07:51.903Z,22.58
2018-07-08T11:08:51.913Z,22.58
2018-07-08T11:09:51.810Z,22.57
2018-07-08T11:10:52.005Z,22.56
2018-07-08T11:12:22.981Z,22.56
2018-07-08T11:12:51.862Z,22.56
2018-07-08T11:13:51.865Z,22.55
2018-07-08T11:14:51.803Z,22.54
2018-07-08T11:15:51.845Z,22.54
2018-07-08T11:16:51.908Z,22.53
2018-07-08T11:17:51.713Z,22.53
2018-07-08T11:18:51.789Z,22.52
2018-07-08T11:19:51.935Z,22.52
2018-07-08T11:20:52.035Z,22.51
2018-07-08T11:21:51.894Z,22.5
2018-07-08T11:22:52.001Z,22.5
2018-07-08T11:23:51.832Z,22.5
2018-07-08T11:24:51.916Z,22.49
2018-07-08T11:25:51.812Z,22.48
2018-07-08T11:26:51.817Z,22.48
2018-07-08T11:27:52.027Z,22.47
2018-07-08T11:28:51.850Z,22.47
2018-07-08T11:29:51.902Z,22.47
2018-07-08T11:30:51.908Z,22.47
2018-07-08T11:31:51.893Z,22.47
2018-07-08T11:32:51.936Z,22.47
2018-07-08T11:33:51.917Z,22.47
2018-07-08T11:34:51.885Z,22.47
2018-07-08T11:35:51.786Z,22.47
2018-07-08T11:36:52.079Z,22.46
2018-07-08T11:37:51.867Z,22.46
2018-07-08T11:38:52.101Z,22.46
2018-07-08T11:39:51.748Z,22.45
2018-07-08T11:40:51.961Z,22.45
2018-07-08T11:41:51.987Z,22.45
2018-07-08T11:42:52.532Z,22.44
2018-07-08T11:43:51.863Z,22.44
2018-07-08T11:44:51.799Z,22.43
2018-07-08T11:45:51.856Z,22.43
2018-07-08T11:46:52.073Z,22.43
2018-07-08T11:48:03.343Z,22.42
2018-07-08T11:48:51.873Z,22.42
2018-07-08T11:49:52.289Z,22.42
2018-07-08T11:50:51.903Z,22.42
2018-07-08T11:51:51.874Z,22.41
2018-07-08T11:52:51.860Z,22.42
2018-07-08T11:53:51.865Z,22.41
2018-07-08T11:54:51.809Z,22.41
2018-07-08T11:55:51.916Z,22.41
2018-07-08T11:56:51.755Z,22.41
2018-07-08T11:57:51.864Z,22.41
2018-07-08T11:58:52.023Z,22.41
2018-07-08T11:59:51.793Z,22.41
2018-07-08T12:00:51.734Z,22.41
2018-07-08T12:01:52.693Z,22.4
2018-07-08T12:02:51.767Z,22.4
2018-07-08T12:03:52.035Z,22.4
2018-07-08T12:04:51.776Z,22.4
2018-07-08T12:05:51.657Z,22.4
2018-07-08T12:06:51.842Z,22.39
2018-07-08T12:07:51.878Z,22.39
2018-07-08T12:08:52.124Z,22.39
2018-07-08T12:09:51.864Z,22.39
2018-07-08T12:10:51.899Z,22.38
2018-07-08T12:11:51.846Z,22.38
2018-07-08T12:12:51.733Z,22.38
2018-07-08T12:13:52.077Z,22.38
2018-07-08T12:14:51.949Z,22.37
2018-07-08T12:15:51.919Z,22.37
2018-07-08T12:16:51.854Z,22.36
2018-07-08T12:17:51.749Z,22.36
2018-07-08T12:18:51.904Z,22.36
2018-07-08T12:19:52.703Z,22.36
2018-07-08T12:20:51.927Z,22.35
2018-07-08T12:21:51.901Z,22.35
2018-07-08T12:22:51.877Z,22.35
2018-07-08T12:23:51.787Z,22.35
2018-07-08T12:24:51.799Z,22.35
2018-07-08T12:25:51.858Z,22.35
2018-07-08T12:26:51.859Z,22.35
2018-07-08T12:27:51.918Z,22.35
2018-07-08T12:28:51.985Z,22.35
2018-07-08T12:29:51.958Z,22.34
2018-07-08T12:30:51.884Z,22.34
2018-07-08T12:31:51.684Z,22.34
2018-07-08T12:32:51.795Z,22.34
2018-07-08T12:33:51.700Z,22.33
2018-07-08T12:34:51.893Z,22.33
2018-07-08T12:35:51.673Z,22.33
2018-07-08T12:36:52.747Z,22.33
2018-07-08T12:37:52.067Z,22.33
2018-07-08T12:38:51.817Z,22.33
2018-07-08T12:39:51.744Z,22.32
2018-07-08T12:40:51.816Z,22.32
2018-07-08T12:42:23.939Z,22.33
2018-07-08T12:42:51.910Z,22.33
2018-07-08T12:43:52.052Z,22.33
2018-07-08T12:44:52.798Z,22.34
2018-07-08T12:45:51.945Z,22.34
2018-07-08T12:46:51.812Z,22.35
2018-07-08T12:47:51.818Z,22.35
2018-07-08T12:48:51.811Z,22.36
2018-07-08T12:49:51.884Z,22.36
2018-07-08T12:50:51.746Z,22.37
2018-07-08T12:51:51.948Z,22.38
2018-07-08T12:52:52.104Z,22.39
2018-07-08T12:53:51.895Z,22.4
2018-07-08T12:54:51.885Z,22.41
2018-07-08T12:55:51.799Z,22.41
2018-07-08T12:56:51.766Z,22.42
2018-07-08T12:57:51.892Z,22.44
2018-07-08T12:58:52.260Z,22.44
2018-07-08T12:59:51.683Z,22.44
2018-07-08T13:00:51.939Z,22.44
2018-07-08T13:01:52.027Z,22.45
2018-07-08T13:02:51.923Z,22.46
2018-07-08T13:03:51.816Z,22.46